Merced, California
Current Conditions -  °F | °C
As of 7:53 AM on Saturday 25 Oct 2014 (Local Time) from KMCE Reporting Station
Clear Clear  
Wind Chill: 14°   Ceiling: Unl
Heat Index: 14°   Visibility: 10mi
Dew Point:   Wind: 5mph
Humidity: 72%   Direction: 110°ESE
Pressure: 30"   Gusts: NA
Location:  37.3°N, 120.48°W
Report Text: KMCE 251453Z AUTO 11004KT 10SM CLR 14/09 A3000 RMK AO2 SLP157 T01440094 53015
Loading
Personal Weather Stations






























Interactive Weather Map
Tropical Storm Tracking
New forecast layout! Learn more

10-Day Weather Forecast

Advertisements
Track Severe Weather on mobile